createdAt,value
2022-08-14T00:00:10.708Z,20.85
2022-08-14T00:02:59.800Z,20.76
2022-08-14T00:05:40.110Z,20.70
2022-08-14T00:08:44.333Z,20.67
2022-08-14T00:11:26.623Z,20.62
2022-08-14T00:14:17.117Z,20.59
2022-08-14T00:16:57.784Z,20.54
2022-08-14T00:19:40.711Z,20.49
2022-08-14T00:22:44.010Z,20.43
2022-08-14T00:25:21.237Z,20.38
2022-08-14T00:28:00.866Z,20.35
2022-08-14T00:30:48.740Z,20.31
2022-08-14T00:33:50.893Z,20.27
2022-08-14T00:36:36.866Z,20.26
2022-08-14T00:39:20.377Z,20.26
2022-08-14T00:41:59.974Z,20.20
2022-08-14T00:44:45.345Z,20.14
2022-08-14T00:47:26.974Z,20.09
2022-08-14T00:50:17.673Z,20.14
2022-08-14T00:52:57.440Z,20.14
2022-08-14T00:55:41.371Z,20.06
2022-08-14T00:58:34.206Z,20.05
2022-08-14T01:01:16.664Z,20.03
2022-08-14T01:03:58.812Z,19.99
2022-08-14T01:06:38.581Z,19.95
2022-08-14T01:09:22.760Z,19.91
2022-08-14T01:12:08.748Z,19.87
2022-08-14T01:14:58.362Z,19.87
2022-08-14T01:17:54.617Z,19.85
2022-08-14T01:20:52.897Z,19.79
2022-08-14T01:23:46.859Z,19.80
2022-08-14T01:27:07.033Z,19.77
2022-08-14T01:30:00.803Z,19.76
2022-08-14T01:32:52.990Z,19.75
2022-08-14T01:36:05.201Z,19.73
2022-08-14T01:39:40.498Z,19.69
2022-08-14T01:42:36.045Z,19.67
2022-08-14T01:45:40.239Z,19.64
2022-08-14T01:48:23.240Z,19.65
2022-08-14T01:51:18.980Z,19.64
2022-08-14T01:54:05.342Z,19.65
2022-08-14T01:56:44.978Z,19.55
2022-08-14T01:59:37.879Z,19.51
2022-08-14T02:02:23.221Z,19.49
2022-08-14T02:05:03.741Z,19.49
2022-08-14T02:07:55.729Z,19.43
2022-08-14T02:11:05.906Z,19.43
2022-08-14T02:13:47.074Z,19.38
2022-08-14T02:16:33.929Z,19.43
2022-08-14T02:19:32.197Z,19.42
2022-08-14T02:22:13.293Z,19.38
2022-08-14T02:25:35.809Z,19.38
2022-08-14T02:28:22.505Z,19.37
2022-08-14T02:31:43.416Z,19.37
2022-08-14T02:34:29.186Z,19.36
2022-08-14T02:37:12.933Z,19.28
2022-08-14T02:40:02.595Z,19.23
2022-08-14T02:42:54.296Z,19.21
2022-08-14T02:45:38.361Z,19.16
2022-08-14T02:49:05.627Z,19.13
2022-08-14T02:51:31.138Z,19.12
2022-08-14T02:54:13.052Z,19.09
2022-08-14T02:57:15.931Z,19.06
2022-08-14T02:59:53.551Z,19.08
2022-08-14T03:02:56.241Z,19.07
2022-08-14T03:05:45.615Z,19.07
2022-08-14T03:08:32.076Z,19.06
2022-08-14T03:11:13.429Z,19.02
2022-08-14T03:13:56.135Z,18.96
2022-08-14T03:16:35.777Z,18.93
2022-08-14T03:19:17.846Z,18.92
2022-08-14T03:21:59.499Z,18.93
2022-08-14T03:24:50.300Z,18.89
2022-08-14T03:27:48.273Z,18.89
2022-08-14T03:30:40.919Z,18.89
2022-08-14T03:33:20.548Z,18.86
2022-08-14T03:37:28.656Z,18.81
2022-08-14T03:39:14.913Z,18.79
2022-08-14T03:42:02.064Z,18.77
2022-08-14T03:45:18.801Z,18.75
2022-08-14T03:47:46.669Z,18.74
2022-08-14T03:50:38.288Z,18.60
2022-08-14T03:53:20.407Z,18.65
2022-08-14T03:56:00.807Z,18.63
2022-08-14T03:58:45.241Z,18.64
2022-08-14T04:01:53.912Z,18.62
2022-08-14T04:04:46.027Z,18.57
2022-08-14T04:08:08.190Z,18.52
2022-08-14T04:10:50.833Z,18.48
2022-08-14T04:13:34.288Z,18.45
2022-08-14T04:16:17.933Z,18.45
2022-08-14T04:19:04.605Z,18.43
2022-08-14T04:22:02.521Z,18.41
2022-08-14T04:24:44.762Z,18.40
2022-08-14T04:27:32.017Z,18.42
2022-08-14T04:30:42.497Z,18.39
2022-08-14T04:33:24.598Z,18.43
2022-08-14T04:36:07.083Z,18.40
2022-08-14T04:39:19.076Z,18.43
2022-08-14T04:42:17.470Z,18.42
2022-08-14T04:45:00.938Z,18.36
2022-08-14T04:47:58.154Z,18.29
2022-08-14T04:50:44.544Z,18.36
2022-08-14T04:54:07.709Z,18.45
2022-08-14T04:56:47.420Z,18.49
2022-08-14T04:59:30.101Z,18.50
2022-08-14T05:02:10.350Z,18.52
2022-08-14T05:04:57.012Z,18.51
2022-08-14T05:07:53.971Z,18.53
2022-08-14T05:10:43.597Z,18.54
2022-08-14T05:13:30.674Z,18.61
2022-08-14T05:26:44.500Z,18.76
2022-08-14T05:29:28.319Z,18.85
2022-08-14T05:32:09.471Z,18.89
2022-08-14T05:34:49.270Z,18.95
2022-08-14T05:37:31.887Z,19.02
2022-08-14T05:40:14.386Z,19.10
2022-08-14T05:42:58.112Z,19.17
2022-08-14T05:45:38.430Z,19.25
2022-08-14T05:48:32.720Z,19.35
2022-08-14T05:51:13.900Z,19.47
2022-08-14T05:54:00.245Z,19.60
2022-08-14T05:56:48.144Z,19.70
2022-08-14T05:59:36.691Z,19.81
2022-08-14T06:02:22.191Z,19.94
2022-08-14T06:05:02.546Z,20.08
2022-08-14T06:07:43.001Z,20.20
2022-08-14T06:10:28.187Z,20.34
2022-08-14T06:13:12.368Z,20.43
2022-08-14T06:15:51.710Z,20.60
2022-08-14T06:18:33.783Z,20.78
2022-08-14T06:21:13.722Z,20.95
2022-08-14T06:23:58.720Z,21.05
2022-08-14T06:26:42.329Z,21.17
2022-08-14T06:29:32.088Z,21.29
2022-08-14T06:32:37.549Z,21.48
2022-08-14T06:35:18.607Z,21.67
2022-08-14T06:38:04.476Z,21.85
2022-08-14T06:40:46.404Z,21.97
2022-08-14T06:43:36.714Z,22.15
2022-08-14T06:46:23.273Z,22.27
2022-08-14T06:49:14.566Z,22.43
2022-08-14T06:51:54.903Z,22.56
2022-08-14T06:54:37.522Z,22.69
2022-08-14T06:57:16.537Z,22.84
2022-08-14T06:59:55.949Z,22.97
2022-08-14T07:02:53.344Z,23.07
2022-08-14T07:05:58.528Z,23.27
2022-08-14T07:08:40.709Z,23.46
2022-08-14T07:11:22.669Z,23.57
2022-08-14T07:14:04.982Z,23.52
2022-08-14T07:16:46.089Z,23.75
2022-08-14T07:19:26.862Z,24.01
2022-08-14T07:22:17.673Z,24.22
2022-08-14T07:25:12.385Z,24.48
2022-08-14T07:28:20.901Z,24.61
2022-08-14T07:31:04.607Z,24.83
2022-08-14T07:33:50.608Z,25.15
2022-08-14T07:36:30.632Z,25.32
2022-08-14T07:39:13.394Z,25.41
2022-08-14T07:41:52.693Z,25.71
2022-08-14T07:44:45.733Z,25.73
2022-08-14T07:47:24.883Z,26.11
2022-08-14T07:50:12.699Z,26.32
2022-08-14T07:53:01.643Z,26.48
2022-08-14T07:55:45.245Z,26.75
2022-08-14T07:58:34.009Z,26.89
2022-08-14T08:01:19.804Z,27.16
2022-08-14T08:04:01.345Z,27.78
2022-08-14T08:06:54.081Z,27.80
2022-08-14T08:09:57.919Z,27.57
2022-08-14T08:13:06.076Z,28.13
2022-08-14T08:15:53.767Z,28.34
2022-08-14T08:18:36.552Z,28.29
2022-08-14T08:21:22.462Z,28.78
2022-08-14T08:24:10.420Z,29.16
2022-08-14T08:26:50.627Z,28.97
2022-08-14T08:29:31.418Z,29.08
2022-08-14T08:32:11.276Z,29.28
2022-08-14T08:34:54.229Z,29.46
2022-08-14T08:37:40.229Z,29.91
2022-08-14T08:40:42.137Z,29.85
2022-08-14T08:43:25.352Z,30.10
2022-08-14T08:46:21.243Z,29.59
2022-08-14T08:49:24.197Z,29.51
2022-08-14T08:52:51.184Z,29.78
2022-08-14T08:55:34.732Z,30.45
2022-08-14T08:58:24.827Z,30.27
2022-08-14T09:01:05.021Z,30.70
2022-08-14T09:03:44.814Z,30.90
2022-08-14T09:07:09.910Z,30.84
2022-08-14T09:09:26.335Z,29.56
2022-08-14T09:12:18.946Z,30.46
2022-08-14T09:15:12.899Z,31.00
2022-08-14T09:18:04.909Z,30.82
2022-08-14T09:20:52.989Z,30.53
2022-08-14T09:24:25.955Z,30.84
2022-08-14T09:26:38.285Z,30.66
2022-08-14T09:29:22.853Z,31.38
2022-08-14T09:32:10.204Z,31.73
2022-08-14T09:35:14.718Z,30.80
2022-08-14T09:38:27.475Z,30.84
2022-08-14T09:42:17.776Z,31.09
2022-08-14T09:45:11.521Z,30.77
2022-08-14T09:47:53.521Z,31.26
2022-08-14T09:50:47.942Z,31.38
2022-08-14T09:54:19.355Z,31.60
2022-08-14T09:56:56.943Z,31.17
2022-08-14T09:59:46.125Z,30.84
2022-08-14T10:03:05.137Z,31.74
2022-08-14T10:05:50.600Z,31.73
2022-08-14T10:08:52.929Z,31.47
2022-08-14T10:11:37.970Z,31.44
2022-08-14T10:14:53.477Z,31.77
2022-08-14T10:17:39.794Z,32.15
2022-08-14T10:20:39.617Z,32.11
2022-08-14T10:23:23.446Z,33.08
2022-08-14T10:26:07.190Z,33.46
2022-08-14T10:29:17.824Z,33.81
2022-08-14T10:31:59.046Z,33.41
2022-08-14T10:35:13.296Z,32.99
2022-08-14T10:37:54.317Z,33.44
2022-08-14T10:40:59.486Z,33.71
2022-08-14T10:44:09.109Z,33.85
2022-08-14T10:47:40.289Z,33.57
2022-08-14T10:50:14.834Z,33.48
2022-08-14T10:53:05.541Z,33.79
2022-08-14T10:55:48.223Z,32.47
2022-08-14T10:58:50.420Z,32.81
2022-08-14T11:01:45.366Z,33.18
2022-08-14T11:05:04.844Z,33.44
2022-08-14T11:08:09.012Z,33.89
2022-08-14T11:12:34.245Z,33.96
2022-08-14T11:15:26.791Z,33.98
2022-08-14T11:18:30.306Z,33.38
2022-08-14T11:22:52.857Z,33.57
2022-08-14T11:25:44.431Z,34.23
2022-08-14T11:28:48.297Z,34.15
2022-08-14T11:31:38.501Z,34.47
2022-08-14T11:34:32.285Z,34.20
2022-08-14T11:37:40.449Z,34.58
2022-08-14T11:40:28.467Z,35.36
2022-08-14T11:43:11.992Z,34.80
2022-08-14T11:45:54.223Z,33.94
2022-08-14T11:49:03.196Z,34.34
2022-08-14T11:51:54.186Z,35.02
2022-08-14T11:54:35.463Z,34.81
2022-08-14T11:57:19.854Z,34.03
2022-08-14T12:00:19.552Z,34.94
2022-08-14T12:03:04.301Z,34.31
2022-08-14T12:05:44.919Z,33.87
2022-08-14T12:08:34.709Z,33.04
2022-08-14T12:11:17.946Z,33.18
2022-08-14T12:14:08.407Z,34.16
2022-08-14T12:17:12.187Z,34.37
2022-08-14T12:19:56.547Z,34.86
2022-08-14T12:22:37.580Z,34.67
2022-08-14T12:25:24.702Z,34.92
2022-08-14T12:28:27.435Z,35.37
2022-08-14T12:31:17.535Z,35.25
2022-08-14T12:34:02.541Z,35.52
2022-08-14T12:36:51.209Z,34.69
2022-08-14T12:39:30.422Z,33.79
2022-08-14T12:42:38.689Z,34.52
2022-08-14T12:45:31.097Z,34.68
2022-08-14T12:48:21.493Z,34.83
2022-08-14T12:51:18.308Z,35.22
2022-08-14T12:54:26.456Z,34.72
2022-08-14T12:57:10.307Z,35.39
2022-08-14T13:00:22.869Z,35.02
2022-08-14T13:03:05.340Z,35.05
2022-08-14T13:05:49.687Z,35.50
2022-08-14T13:08:34.477Z,35.61
2022-08-14T13:11:18.399Z,34.57
2022-08-14T13:14:04.904Z,34.37
2022-08-14T13:16:50.544Z,34.38
2022-08-14T13:19:30.955Z,34.62
2022-08-14T13:22:29.152Z,35.24
2022-08-14T13:25:16.706Z,34.88
2022-08-14T13:27:59.356Z,34.78
2022-08-14T13:30:41.467Z,34.90
2022-08-14T13:33:21.901Z,35.17
2022-08-14T13:36:04.313Z,35.03
2022-08-14T13:38:45.544Z,34.71
2022-08-14T13:41:34.539Z,34.94
2022-08-14T13:44:16.641Z,34.64
2022-08-14T13:47:06.931Z,33.86
2022-08-14T13:49:57.505Z,34.28
2022-08-14T13:52:52.683Z,34.14
2022-08-14T13:55:36.343Z,33.89
2022-08-14T13:58:33.640Z,33.91
2022-08-14T14:01:16.711Z,34.17
2022-08-14T14:03:59.217Z,33.26
2022-08-14T14:06:44.675Z,33.54
2022-08-14T14:09:32.577Z,33.10
2022-08-14T14:12:38.079Z,33.04
2022-08-14T14:15:23.018Z,32.32
2022-08-14T14:18:29.420Z,32.33
2022-08-14T14:21:14.995Z,32.44
2022-08-14T14:23:56.242Z,32.39
2022-08-14T14:26:38.790Z,32.26
2022-08-14T14:29:25.926Z,32.43
2022-08-14T14:32:07.938Z,32.37
2022-08-14T14:34:53.300Z,32.18
2022-08-14T14:37:32.751Z,32.08
2022-08-14T14:40:54.149Z,32.08
2022-08-14T14:43:17.455Z,32.28
2022-08-14T14:45:58.345Z,32.34
2022-08-14T14:48:44.205Z,32.13
2022-08-14T14:51:26.858Z,32.23
2022-08-14T14:54:09.415Z,32.17
2022-08-14T14:56:56.137Z,32.06
2022-08-14T14:59:35.795Z,32.18
2022-08-14T15:02:30.541Z,32.07
2022-08-14T15:05:13.075Z,32.06
2022-08-14T15:07:53.849Z,31.98
2022-08-14T15:10:39.846Z,32.15
2022-08-14T15:13:20.527Z,31.96
2022-08-14T15:16:01.935Z,32.25
2022-08-14T15:18:46.826Z,32.27
2022-08-14T15:21:29.499Z,32.22
2022-08-14T15:24:16.463Z,32.04
2022-08-14T15:27:06.529Z,32.24
2022-08-14T15:29:48.834Z,32.17
2022-08-14T15:32:29.500Z,32.12
2022-08-14T15:35:09.806Z,32.12
2022-08-14T15:37:55.940Z,31.90
2022-08-14T15:40:41.011Z,32.14
2022-08-14T15:43:27.222Z,32.03
2022-08-14T15:46:41.197Z,31.86
2022-08-14T15:49:12.460Z,31.82
2022-08-14T15:51:55.615Z,31.70
2022-08-14T15:54:36.018Z,31.66
2022-08-14T15:57:21.073Z,31.85
2022-08-14T16:00:40.173Z,31.83
2022-08-14T16:03:27.180Z,31.63
2022-08-14T16:06:17.432Z,31.74
2022-08-14T16:09:03.474Z,31.41
2022-08-14T16:11:53.920Z,31.33
2022-08-14T16:14:37.119Z,31.43
2022-08-14T16:17:22.535Z,31.07
2022-08-14T16:20:08.221Z,30.97
2022-08-14T16:22:58.180Z,30.92
2022-08-14T16:25:40.489Z,31.12
2022-08-14T16:28:27.535Z,31.06
2022-08-14T16:31:10.707Z,30.97
2022-08-14T16:33:58.679Z,30.85
2022-08-14T16:37:01.487Z,30.75
2022-08-14T16:39:42.138Z,30.66
2022-08-14T16:43:02.790Z,30.63
2022-08-14T16:45:31.662Z,30.51
2022-08-14T16:48:54.896Z,30.41
2022-08-14T16:51:36.293Z,30.31
2022-08-14T16:54:20.856Z,30.37
2022-08-14T16:57:21.141Z,30.34
2022-08-14T17:00:07.423Z,30.29
2022-08-14T17:03:08.392Z,30.25
2022-08-14T17:05:52.560Z,30.21
2022-08-14T17:08:46.471Z,30.12
2022-08-14T17:11:27.737Z,30.03
2022-08-14T17:14:10.554Z,30.00
2022-08-14T17:16:56.017Z,29.98
2022-08-14T17:19:41.229Z,29.99
2022-08-14T17:22:21.027Z,29.99
2022-08-14T17:25:03.963Z,29.92
2022-08-14T17:27:45.079Z,29.85
2022-08-14T17:30:48.857Z,29.72
2022-08-14T17:33:33.430Z,29.77
2022-08-14T17:36:25.001Z,29.74
2022-08-14T17:39:07.258Z,29.59
2022-08-14T17:42:02.037Z,29.58
2022-08-14T17:44:45.891Z,29.55
2022-08-14T17:47:27.661Z,29.46
2022-08-14T17:50:59.813Z,29.51
2022-08-14T17:53:16.805Z,29.41
2022-08-14T17:56:04.661Z,29.38
2022-08-14T17:58:45.768Z,29.28
2022-08-14T18:01:29.626Z,29.28
2022-08-14T18:04:28.189Z,29.24
2022-08-14T18:07:16.276Z,29.16
2022-08-14T18:10:00.070Z,29.16
2022-08-14T18:13:02.381Z,29.19
2022-08-14T18:15:44.292Z,29.12
2022-08-14T18:18:32.140Z,29.03
2022-08-14T18:21:24.338Z,29.01
2022-08-14T18:24:39.935Z,28.99
2022-08-14T18:27:41.643Z,28.91
2022-08-14T18:30:31.863Z,28.87
2022-08-14T18:33:22.912Z,28.81
2022-08-14T18:36:47.571Z,28.80
2022-08-14T18:39:24.189Z,28.71
2022-08-14T18:42:40.758Z,28.65
2022-08-14T18:45:29.346Z,28.57
2022-08-14T18:48:28.677Z,28.51
2022-08-14T18:51:46.155Z,28.41
2022-08-14T18:54:33.123Z,28.35
2022-08-14T18:57:20.141Z,28.24
2022-08-14T19:00:00.530Z,28.15
2022-08-14T19:02:43.872Z,28.07
2022-08-14T19:08:39.406Z,27.91
2022-08-14T19:11:50.420Z,27.75
2022-08-14T19:14:47.916Z,27.67
2022-08-14T19:18:14.301Z,27.59
2022-08-14T19:21:00.925Z,27.55
2022-08-14T19:23:59.498Z,27.54
2022-08-14T19:26:54.654Z,27.49
2022-08-14T19:29:37.724Z,27.43
2022-08-14T19:32:39.434Z,27.44
2022-08-14T19:35:49.522Z,27.38
2022-08-14T19:38:52.026Z,27.33
2022-08-14T19:41:37.973Z,27.21
2022-08-14T19:44:20.617Z,27.23
2022-08-14T19:47:13.670Z,27.19
2022-08-14T19:50:30.354Z,27.09
2022-08-14T19:53:11.389Z,27.07
2022-08-14T19:55:59.371Z,27.05
2022-08-14T19:58:54.546Z,26.95
2022-08-14T20:01:38.289Z,26.95
2022-08-14T20:04:47.703Z,26.86
2022-08-14T20:09:05.688Z,26.78
2022-08-14T20:11:04.106Z,26.75
2022-08-14T20:13:40.899Z,26.73
2022-08-14T20:16:31.950Z,26.72
2022-08-14T20:19:16.040Z,26.64
2022-08-14T20:22:34.963Z,26.63
2022-08-14T20:25:15.172Z,26.56
2022-08-14T20:27:59.271Z,26.53
2022-08-14T20:30:44.070Z,26.43
2022-08-14T20:34:08.009Z,26.41
2022-08-14T20:37:42.244Z,26.42
2022-08-14T20:40:27.638Z,26.36
2022-08-14T20:43:35.631Z,26.37
2022-08-14T20:46:29.969Z,26.33
2022-08-14T20:49:34.413Z,26.28
2022-08-14T20:52:19.308Z,26.21
2022-08-14T20:55:01.777Z,26.14
2022-08-14T20:58:09.568Z,26.09
2022-08-14T21:00:52.424Z,26.02
2022-08-14T21:03:57.986Z,25.97
2022-08-14T21:07:22.655Z,25.87
2022-08-14T21:10:05.421Z,25.82
2022-08-14T21:13:25.603Z,25.75
2022-08-14T21:15:57.181Z,25.69
2022-08-14T21:18:54.837Z,25.62
2022-08-14T21:21:42.461Z,25.55
2022-08-14T21:24:39.571Z,25.51
2022-08-14T21:27:27.388Z,25.44
2022-08-14T21:30:20.856Z,25.40
2022-08-14T21:33:02.311Z,25.38
2022-08-14T21:35:45.507Z,25.25
2022-08-14T21:38:46.496Z,25.17
2022-08-14T21:41:42.309Z,25.14
2022-08-14T21:44:42.937Z,25.09
2022-08-14T21:47:24.949Z,25.05
2022-08-14T21:50:59.982Z,25.02
2022-08-14T21:53:27.440Z,24.96
2022-08-14T21:56:12.154Z,24.91
2022-08-14T21:58:56.653Z,24.88
2022-08-14T22:02:00.628Z,24.81
2022-08-14T22:04:41.435Z,24.80
2022-08-14T22:07:21.143Z,24.77
2022-08-14T22:10:10.980Z,24.75
2022-08-14T22:13:00.734Z,24.71
2022-08-14T22:15:43.848Z,24.70
2022-08-14T22:18:32.208Z,24.67
2022-08-14T22:21:16.710Z,24.65
2022-08-14T22:24:37.733Z,24.63
2022-08-14T22:27:21.326Z,24.63
2022-08-14T22:30:24.000Z,24.60
2022-08-14T22:33:05.910Z,24.59
2022-08-14T22:35:56.386Z,24.57
2022-08-14T22:38:50.652Z,24.55
2022-08-14T22:41:43.036Z,24.53
2022-08-14T22:44:28.545Z,24.49
2022-08-14T22:47:09.795Z,24.46
2022-08-14T22:50:29.441Z,24.44
2022-08-14T22:52:51.385Z,24.38
2022-08-14T22:55:31.298Z,24.36
2022-08-14T22:58:17.608Z,24.33
2022-08-14T23:01:01.220Z,24.30
2022-08-14T23:03:43.247Z,24.26
2022-08-14T23:07:02.850Z,24.23
2022-08-14T23:09:35.100Z,24.16
2022-08-14T23:12:27.586Z,24.14
2022-08-14T23:15:10.000Z,24.08
2022-08-14T23:17:50.580Z,24.03
2022-08-14T23:20:31.844Z,24.00
2022-08-14T23:23:22.280Z,23.94
2022-08-14T23:26:48.303Z,23.89
2022-08-14T23:29:07.611Z,23.83
2022-08-14T23:31:52.055Z,23.78
2022-08-14T23:34:38.309Z,23.76
2022-08-14T23:37:30.844Z,23.71
2022-08-14T23:40:26.562Z,23.61
2022-08-14T23:43:14.572Z,23.56
2022-08-14T23:45:57.943Z,23.47
2022-08-14T23:48:40.277Z,23.42
2022-08-14T23:51:28.275Z,23.36
2022-08-14T23:54:47.330Z,23.33
2022-08-14T23:57:19.599Z,23.29
2022-08-14T23:59:59.017Z,23.24
